sensor_id;sensor_type;location;lat;lon;timestamp;pressure;altitude;pressure_sealevel;temperature;humidity
77537;BME280;67783;51.656;16.106;2023-04-29T00:00:22;101266.09;;;13.67;51.67
77537;BME280;67783;51.656;16.106;2023-04-29T00:03:28;101262.05;;;13.62;50.56
77537;BME280;67783;51.656;16.106;2023-04-29T00:06:32;101265.20;;;13.56;50.89
77537;BME280;67783;51.656;16.106;2023-04-29T00:09:40;101272.91;;;13.49;53.48
77537;BME280;67783;51.656;16.106;2023-04-29T00:12:42;101269.21;;;13.50;51.03
77537;BME280;67783;51.656;16.106;2023-04-29T00:15:43;101264.06;;;13.47;51.86
77537;BME280;67783;51.656;16.106;2023-04-29T00:18:45;101262.13;;;13.49;50.97
77537;BME280;67783;51.656;16.106;2023-04-29T00:21:47;101258.67;;;13.47;51.45
77537;BME280;67783;51.656;16.106;2023-04-29T00:24:49;101260.16;;;13.51;50.91
77537;BME280;67783;51.656;16.106;2023-04-29T00:27:51;101259.91;;;13.54;51.29
77537;BME280;67783;51.656;16.106;2023-04-29T00:30:56;101253.55;;;13.55;53.71
77537;BME280;67783;51.656;16.106;2023-04-29T00:33:58;101253.10;;;13.61;51.01
77537;BME280;67783;51.656;16.106;2023-04-29T00:36:59;101249.20;;;13.65;51.75
77537;BME280;67783;51.656;16.106;2023-04-29T00:40:01;101248.95;;;13.68;50.93
77537;BME280;67783;51.656;16.106;2023-04-29T00:43:04;101244.43;;;13.69;51.42
77537;BME280;67783;51.656;16.106;2023-04-29T00:46:17;101239.14;;;13.67;53.98
77537;BME280;67783;51.656;16.106;2023-04-29T00:49:19;101240.63;;;13.71;51.27
77537;BME280;67783;51.656;16.106;2023-04-29T00:52:22;101240.63;;;13.71;52.05
77537;BME280;67783;51.656;16.106;2023-04-29T00:55:24;101236.51;;;13.78;51.20
77537;BME280;67783;51.656;16.106;2023-04-29T00:58:28;101238.95;;;13.81;51.73
77537;BME280;67783;51.656;16.106;2023-04-29T01:01:37;101231.94;;;13.79;54.23
77537;BME280;67783;51.656;16.106;2023-04-29T01:04:39;101226.80;;;13.76;51.79
77537;BME280;67783;51.656;16.106;2023-04-29T01:11:08;101226.28;;;13.71;54.40
77537;BME280;67783;51.656;16.106;2023-04-29T01:14:10;101233.05;;;13.76;51.87
77537;BME280;67783;51.656;16.106;2023-04-29T01:17:17;101230.11;;;13.79;52.35
77537;BME280;67783;51.656;16.106;2023-04-29T01:20:31;101230.61;;;13.84;53.99
77537;BME280;67783;51.656;16.106;2023-04-29T01:23:33;101230.27;;;13.89;51.90
77537;BME280;67783;51.656;16.106;2023-04-29T01:26:35;101223.76;;;13.92;52.71
77537;BME280;67783;51.656;16.106;2023-04-29T01:32:59;101214.34;;;13.97;52.17
77537;BME280;67783;51.656;16.106;2023-04-29T01:39:40;101216.32;;;14.06;54.25
77537;BME280;67783;51.656;16.106;2023-04-29T01:42:51;101212.76;;;14.06;52.05
77537;BME280;67783;51.656;16.106;2023-04-29T01:45:53;101212.04;;;14.04;52.49
77537;BME280;67783;51.656;16.106;2023-04-29T01:48:57;101207.84;;;14.00;54.92
77537;BME280;67783;51.656;16.106;2023-04-29T01:51:58;101209.81;;;13.98;52.81
77537;BME280;67783;51.656;16.106;2023-04-29T01:55:00;101202.95;;;13.94;53.90
77537;BME280;67783;51.656;16.106;2023-04-29T01:58:01;101204.67;;;13.95;52.87
77537;BME280;67783;51.656;16.106;2023-04-29T02:01:03;101202.34;;;13.90;53.83
77537;BME280;67783;51.656;16.106;2023-04-29T02:04:04;101204.17;;;13.90;53.14
77537;BME280;67783;51.656;16.106;2023-04-29T02:07:06;101204.89;;;13.92;53.43
77537;BME280;67783;51.656;16.106;2023-04-29T02:10:11;101205.14;;;13.88;56.53
77537;BME280;67783;51.656;16.106;2023-04-29T02:13:13;101211.28;;;13.91;53.72
77537;BME280;67783;51.656;16.106;2023-04-29T02:16:15;101208.80;;;13.87;54.78
77537;BME280;67783;51.656;16.106;2023-04-29T02:19:17;101179.05;;;13.78;53.61
77537;BME280;67783;51.656;16.106;2023-04-29T02:22:18;101196.80;;;13.92;54.12
77537;BME280;67783;51.656;16.106;2023-04-29T02:25:20;101201.25;;;14.04;53.45
77537;BME280;67783;51.656;16.106;2023-04-29T02:28:21;101195.11;;;14.02;54.27
77537;BME280;67783;51.656;16.106;2023-04-29T02:31:26;101186.77;;;13.94;57.41
77537;BME280;67783;51.656;16.106;2023-04-29T02:34:29;101181.02;;;13.87;54.61
77537;BME280;67783;51.656;16.106;2023-04-29T02:37:32;101176.10;;;13.81;55.27
77537;BME280;67783;51.656;16.106;2023-04-29T02:40:33;101172.43;;;13.82;54.35
77537;BME280;67783;51.656;16.106;2023-04-29T02:43:35;101184.20;;;13.81;54.71
77537;BME280;67783;51.656;16.106;2023-04-29T02:46:47;101176.46;;;13.87;56.75
77537;BME280;67783;51.656;16.106;2023-04-29T02:49:49;101178.44;;;13.97;54.20
77537;BME280;67783;51.656;16.106;2023-04-29T02:52:50;101180.77;;;14.01;54.87
77537;BME280;67783;51.656;16.106;2023-04-29T02:55:52;101173.18;;;14.06;54.20
77537;BME280;67783;51.656;16.106;2023-04-29T02:58:53;101181.52;;;14.14;54.30
77537;BME280;67783;51.656;16.106;2023-04-29T03:01:55;101185.79;;;14.17;53.87
77537;BME280;67783;51.656;16.106;2023-04-29T03:04:57;101189.60;;;14.14;54.25
77537;BME280;67783;51.656;16.106;2023-04-29T03:08:03;101195.85;;;14.15;55.94
77537;BME280;67783;51.656;16.106;2023-04-29T03:11:05;101191.94;;;14.19;54.07
77537;BME280;67783;51.656;16.106;2023-04-29T03:14:06;101188.02;;;14.23;54.81
77537;BME280;67783;51.656;16.106;2023-04-29T03:17:08;101185.81;;;14.28;54.00
77537;BME280;67783;51.656;16.106;2023-04-29T03:20:11;101187.50;;;14.29;54.25
77537;BME280;67783;51.656;16.106;2023-04-29T03:23:23;101191.92;;;14.30;55.45
77537;BME280;67783;51.656;16.106;2023-04-29T03:26:24;101183.45;;;14.34;53.80
77537;BME280;67783;51.656;16.106;2023-04-29T03:29:26;101177.46;;;14.31;54.46
77537;BME280;67783;51.656;16.106;2023-04-29T03:32:27;101173.04;;;14.30;53.85
77537;BME280;67783;51.656;16.106;2023-04-29T03:35:29;101176.10;;;14.25;54.08
77537;BME280;67783;51.656;16.106;2023-04-29T03:38:30;101181.38;;;14.27;53.77
77537;BME280;67783;51.656;16.106;2023-04-29T03:41:32;101175.99;;;14.27;53.94
77537;BME280;67783;51.656;16.106;2023-04-29T03:44:38;101180.16;;;14.31;55.74
77537;BME280;67783;51.656;16.106;2023-04-29T03:47:40;101178.07;;;14.34;53.90
77537;BME280;67783;51.656;16.106;2023-04-29T03:50:41;101184.84;;;14.40;54.50
77537;BME280;67783;51.656;16.106;2023-04-29T03:53:43;101184.59;;;14.43;53.83
77537;BME280;67783;51.656;16.106;2023-04-29T03:56:45;101182.86;;;14.42;54.38
77537;BME280;67783;51.656;16.106;2023-04-29T03:59:47;101185.34;;;14.45;54.06
77537;BME280;67783;51.656;16.106;2023-04-29T04:02:50;101189.49;;;14.38;54.59
77537;BME280;67783;51.656;16.106;2023-04-29T04:05:55;101185.06;;;14.37;56.92
77537;BME280;67783;51.656;16.106;2023-04-29T04:08:56;101193.91;;;14.39;54.62
77537;BME280;67783;51.656;16.106;2023-04-29T04:11:58;101182.85;;;14.31;56.02
77537;BME280;67783;51.656;16.106;2023-04-29T04:15:01;101193.15;;;14.26;55.04
77537;BME280;67783;51.656;16.106;2023-04-29T04:18:04;101185.06;;;14.15;55.64
77537;BME280;67783;51.656;16.106;2023-04-29T04:21:18;101180.41;;;14.06;58.47
77537;BME280;67783;51.656;16.106;2023-04-29T04:24:20;101182.85;;;13.98;56.10
77537;BME280;67783;51.656;16.106;2023-04-29T04:27:22;101185.05;;;13.93;56.67
77537;BME280;67783;51.656;16.106;2023-04-29T04:30:23;101185.81;;;13.95;55.93
77537;BME280;67783;51.656;16.106;2023-04-29T04:33:25;101184.95;;;13.94;56.47
77537;BME280;67783;51.656;16.106;2023-04-29T04:36:36;101181.64;;;13.91;59.06
77537;BME280;67783;51.656;16.106;2023-04-29T04:39:38;101177.94;;;13.92;56.21
77537;BME280;67783;51.656;16.106;2023-04-29T04:42:39;101179.81;;;13.91;57.39
77537;BME280;67783;51.656;16.106;2023-04-29T04:45:41;101175.13;;;13.93;56.41
77537;BME280;67783;51.656;16.106;2023-04-29T04:48:43;101178.19;;;13.88;57.28
77537;BME280;67783;51.656;16.106;2023-04-29T04:51:44;101178.94;;;13.91;56.63
77537;BME280;67783;51.656;16.106;2023-04-29T04:54:46;101183.33;;;13.92;56.67
77537;BME280;67783;51.656;16.106;2023-04-29T04:57:51;101183.97;;;13.95;58.54
77537;BME280;67783;51.656;16.106;2023-04-29T05:00:52;101181.88;;;13.99;56.60
77537;BME280;67783;51.656;16.106;2023-04-29T05:03:54;101179.30;;;13.97;57.59
77537;BME280;67783;51.656;16.106;2023-04-29T05:06:55;101182.97;;;13.96;57.04
77537;BME280;67783;51.656;16.106;2023-04-29T05:09:57;101192.88;;;13.96;57.45
77537;BME280;67783;51.656;16.106;2023-04-29T05:12:59;101162.38;;;13.73;57.32
77537;BME280;67783;51.656;16.106;2023-04-29T05:16:01;101201.98;;;13.95;57.46
77537;BME280;67783;51.656;16.106;2023-04-29T05:19:05;101200.14;;;13.95;60.30
77537;BME280;67783;51.656;16.106;2023-04-29T05:22:09;101211.54;;;13.99;58.15
77537;BME280;67783;51.656;16.106;2023-04-29T05:25:10;101202.95;;;13.94;58.57
77537;BME280;67783;51.656;16.106;2023-04-29T05:28:12;101214.84;;;13.91;57.83
77537;BME280;67783;51.656;16.106;2023-04-29T05:31:14;101212.51;;;13.86;58.47
77537;BME280;67783;51.656;16.106;2023-04-29T05:34:15;101221.80;;;13.82;58.06
77537;BME280;67783;51.656;16.106;2023-04-29T05:37:17;101225.48;;;13.81;58.11
77537;BME280;67783;51.656;16.106;2023-04-29T05:40:22;101201.21;;;13.70;61.77
77537;BME280;67783;51.656;16.106;2023-04-29T05:43:23;101215.20;;;13.86;58.45
77537;BME280;67783;51.656;16.106;2023-04-29T05:46:25;101214.09;;;13.89;59.37
77537;BME280;67783;51.656;16.106;2023-04-29T05:49:27;101212.01;;;13.93;58.62
77537;BME280;67783;51.656;16.106;2023-04-29T05:52:28;101210.52;;;13.88;59.33
77537;BME280;67783;51.656;16.106;2023-04-29T05:55:30;101205.39;;;13.85;59.50
77537;BME280;67783;51.656;16.106;2023-04-29T05:58:31;101192.74;;;13.75;61.18
77537;BME280;67783;51.656;16.106;2023-04-29T06:01:36;101199.48;;;13.69;64.22
77537;BME280;67783;51.656;16.106;2023-04-29T06:04:39;101197.77;;;13.68;60.98
77537;BME280;67783;51.656;16.106;2023-04-29T06:07:41;101200.95;;;13.62;61.87
77537;BME280;67783;51.656;16.106;2023-04-29T06:10:43;101203.40;;;13.65;61.53
77537;BME280;67783;51.656;16.106;2023-04-29T06:13:45;101200.95;;;13.62;61.36
77537;BME280;67783;51.656;16.106;2023-04-29T06:16:57;101206.09;;;13.65;65.12
77537;BME280;67783;51.656;16.106;2023-04-29T06:19:59;101212.81;;;13.71;61.29
77537;BME280;67783;51.656;16.106;2023-04-29T06:23:02;101210.62;;;13.65;63.50
77537;BME280;67783;51.656;16.106;2023-04-29T06:26:05;101216.62;;;13.68;61.83
77537;BME280;67783;51.656;16.106;2023-04-29T06:29:07;101213.31;;;13.65;63.40
77537;BME280;67783;51.656;16.106;2023-04-29T06:32:18;101220.07;;;13.70;66.41
77537;BME280;67783;51.656;16.106;2023-04-29T06:35:19;101214.95;;;13.78;61.91
77537;BME280;67783;51.656;16.106;2023-04-29T06:38:21;101215.20;;;13.86;63.25
77537;BME280;67783;51.656;16.106;2023-04-29T06:41:22;101220.84;;;13.95;62.19
77537;BME280;67783;51.656;16.106;2023-04-29T06:44:24;101218.01;;;13.96;63.60
77537;BME280;67783;51.656;16.106;2023-04-29T06:47:27;101216.57;;;14.03;62.38
77537;BME280;67783;51.656;16.106;2023-04-29T06:50:29;101221.81;;;14.05;62.75
77537;BME280;67783;51.656;16.106;2023-04-29T06:53:34;101212.89;;;14.15;66.22
77537;BME280;67783;51.656;16.106;2023-04-29T06:56:36;101215.59;;;14.26;62.52
77537;BME280;67783;51.656;16.106;2023-04-29T06:59:37;101207.73;;;14.34;63.85
77537;BME280;67783;51.656;16.106;2023-04-29T07:02:39;101214.76;;;14.48;62.02
77537;BME280;67783;51.656;16.106;2023-04-29T07:05:41;101212.03;;;14.59;62.73
77537;BME280;67783;51.656;16.106;2023-04-29T07:08:55;101214.22;;;14.76;64.72
77537;BME280;67783;51.656;16.106;2023-04-29T07:11:56;101218.94;;;14.95;61.73
77537;BME280;67783;51.656;16.106;2023-04-29T07:14:58;101222.82;;;15.13;62.68
77537;BME280;67783;51.656;16.106;2023-04-29T07:18:00;101215.02;;;15.31;61.44
77537;BME280;67783;51.656;16.106;2023-04-29T07:21:01;101220.09;;;15.45;62.24
77537;BME280;67783;51.656;16.106;2023-04-29T07:24:03;101217.31;;;15.67;61.19
77537;BME280;67783;51.656;16.106;2023-04-29T07:27:05;101214.49;;;15.90;61.34
77537;BME280;67783;51.656;16.106;2023-04-29T07:30:10;101211.01;;;16.08;63.60
77537;BME280;67783;51.656;16.106;2023-04-29T07:33:12;101195.38;;;16.12;60.70
77537;BME280;67783;51.656;16.106;2023-04-29T07:36:14;101221.11;;;16.37;61.22
77537;BME280;67783;51.656;16.106;2023-04-29T07:39:15;101222.88;;;16.47;60.35
77537;BME280;67783;51.656;16.106;2023-04-29T07:42:21;101227.44;;;16.56;60.72
77537;BME280;67783;51.656;16.106;2023-04-29T07:45:31;101233.25;;;16.73;62.34
77537;BME280;67783;51.656;16.106;2023-04-29T07:48:39;101229.02;;;16.89;60.06
77537;BME280;67783;51.656;16.106;2023-04-29T07:51:41;101219.35;;;17.06;59.97
77537;BME280;67783;51.656;16.106;2023-04-29T07:54:42;101227.78;;;17.22;59.54
77537;BME280;67783;51.656;16.106;2023-04-29T07:57:44;101226.90;;;17.31;59.19
77537;BME280;67783;51.656;16.106;2023-04-29T08:00:51;101227.05;;;17.39;60.09
77537;BME280;67783;51.656;16.106;2023-04-29T08:03:53;101232.62;;;17.57;58.92
77537;BME280;67783;51.656;16.106;2023-04-29T08:06:55;101225.34;;;17.77;58.89
77537;BME280;67783;51.656;16.106;2023-04-29T08:09:56;101233.88;;;18.01;58.24
77537;BME280;67783;51.656;16.106;2023-04-29T08:12:58;101226.86;;;18.08;57.78
77537;BME280;67783;51.656;16.106;2023-04-29T08:16:00;101216.14;;;18.07;57.60
77537;BME280;67783;51.656;16.106;2023-04-29T08:19:01;101223.59;;;18.05;57.99
77537;BME280;67783;51.656;16.106;2023-04-29T08:22:06;101216.00;;;18.08;58.27
77537;BME280;67783;51.656;16.106;2023-04-29T08:25:08;101224.95;;;18.18;57.73
77537;BME280;67783;51.656;16.106;2023-04-29T08:28:10;101226.78;;;18.27;57.83
77537;BME280;67783;51.656;16.106;2023-04-29T08:31:18;101222.11;;;18.47;57.35
77537;BME280;67783;51.656;16.106;2023-04-29T08:34:20;101217.88;;;18.72;57.01
77537;BME280;67783;51.656;16.106;2023-04-29T08:37:27;101223.62;;;18.96;57.01
77537;BME280;67783;51.656;16.106;2023-04-29T08:40:28;101224.17;;;19.17;56.24
77537;BME280;67783;51.656;16.106;2023-04-29T08:43:30;101225.49;;;19.31;55.87
77537;BME280;67783;51.656;16.106;2023-04-29T08:46:37;101221.10;;;19.48;55.71
77537;BME280;67783;51.656;16.106;2023-04-29T08:49:40;101226.28;;;19.59;55.42
77537;BME280;67783;51.656;16.106;2023-04-29T08:52:49;101221.56;;;19.61;54.66
77537;BME280;67783;51.656;16.106;2023-04-29T08:55:53;101229.10;;;19.67;55.11
77537;BME280;67783;51.656;16.106;2023-04-29T08:58:57;101229.10;;;19.67;54.74
77537;BME280;67783;51.656;16.106;2023-04-29T09:01:59;101228.07;;;19.68;54.88
77537;BME280;67783;51.656;16.106;2023-04-29T09:05:10;101229.78;;;19.69;54.81
77537;BME280;67783;51.656;16.106;2023-04-29T09:08:11;101242.70;;;19.67;54.45
77537;BME280;67783;51.656;16.106;2023-04-29T09:11:13;101217.38;;;19.49;54.72
77537;BME280;67783;51.656;16.106;2023-04-29T09:14:16;101242.85;;;19.48;54.78
77537;BME280;67783;51.656;16.106;2023-04-29T09:17:19;101247.89;;;19.43;54.83
77537;BME280;67783;51.656;16.106;2023-04-29T09:20:26;101252.37;;;19.34;54.83
77537;BME280;67783;51.656;16.106;2023-04-29T09:23:36;101253.46;;;19.23;54.83
77537;BME280;67783;51.656;16.106;2023-04-29T09:26:42;101254.45;;;19.22;54.95
77537;BME280;67783;51.656;16.106;2023-04-29T09:33:04;101247.68;;;19.54;54.67
77537;BME280;67783;51.656;16.106;2023-04-29T09:36:06;101247.35;;;19.74;54.38
77537;BME280;67783;51.656;16.106;2023-04-29T09:39:09;101249.88;;;19.94;54.02
77537;BME280;67783;51.656;16.106;2023-04-29T09:42:23;101257.88;;;20.21;53.18
77537;BME280;67783;51.656;16.106;2023-04-29T09:45:32;101249.01;;;20.37;53.28
77537;BME280;67783;51.656;16.106;2023-04-29T09:48:35;101258.91;;;20.46;52.93
77537;BME280;67783;51.656;16.106;2023-04-29T09:54:51;101254.45;;;20.37;52.79
77537;BME280;67783;51.656;16.106;2023-04-29T09:57:55;101255.53;;;20.26;52.28
77537;BME280;67783;51.656;16.106;2023-04-29T10:01:01;101262.45;;;20.12;53.14
77537;BME280;67783;51.656;16.106;2023-04-29T10:04:05;101263.34;;;19.95;53.27
77537;BME280;67783;51.656;16.106;2023-04-29T10:07:14;101270.11;;;19.91;53.31
77537;BME280;67783;51.656;16.106;2023-04-29T10:10:17;101264.34;;;19.94;53.17
77537;BME280;67783;51.656;16.106;2023-04-29T10:13:24;101262.01;;;19.99;52.42
77537;BME280;67783;51.656;16.106;2023-04-29T10:16:33;101265.98;;;20.13;53.03
77537;BME280;67783;51.656;16.106;2023-04-29T10:19:51;101261.65;;;20.20;52.95
77537;BME280;67783;51.656;16.106;2023-04-29T10:22:55;101261.31;;;20.23;52.54
77537;BME280;67783;51.656;16.106;2023-04-29T10:26:01;101256.24;;;20.28;52.51
77537;BME280;67783;51.656;16.106;2023-04-29T10:29:04;101262.10;;;20.33;52.28
77537;BME280;67783;51.656;16.106;2023-04-29T10:32:14;101256.85;;;20.40;51.56
77537;BME280;67783;51.656;16.106;2023-04-29T10:35:19;101255.40;;;20.53;51.99
77537;BME280;67783;51.656;16.106;2023-04-29T10:38:31;101249.13;;;20.61;51.24
77537;BME280;67783;51.656;16.106;2023-04-29T10:41:45;101239.28;;;20.68;50.94
77537;BME280;67783;51.656;16.106;2023-04-29T10:48:12;101245.41;;;20.62;51.45
77537;BME280;67783;51.656;16.106;2023-04-29T10:54:28;101249.28;;;20.59;51.52
77537;BME280;67783;51.656;16.106;2023-04-29T10:57:30;101249.62;;;20.56;51.70
77537;BME280;67783;51.656;16.106;2023-04-29T11:00:36;101248.39;;;20.51;51.99
77537;BME280;67783;51.656;16.106;2023-04-29T11:07:00;101243.69;;;20.61;52.05
77537;BME280;67783;51.656;16.106;2023-04-29T11:10:06;101228.30;;;20.52;52.46
77537;BME280;67783;51.656;16.106;2023-04-29T11:16:25;101249.20;;;20.77;51.91
77537;BME280;67783;51.656;16.106;2023-04-29T11:19:36;101254.65;;;20.77;52.11
77537;BME280;67783;51.656;16.106;2023-04-29T11:22:37;101253.95;;;20.75;52.29
77537;BME280;67783;51.656;16.106;2023-04-29T11:25:40;101255.84;;;20.75;52.46
77537;BME280;67783;51.656;16.106;2023-04-29T11:28:42;101262.80;;;20.69;52.09
77537;BME280;67783;51.656;16.106;2023-04-29T11:31:44;101254.59;;;20.61;52.34
77537;BME280;67783;51.656;16.106;2023-04-29T11:34:52;101259.98;;;20.53;52.58
77537;BME280;67783;51.656;16.106;2023-04-29T11:37:53;101256.56;;;20.51;52.61
77537;BME280;67783;51.656;16.106;2023-04-29T11:40:58;101262.72;;;20.53;52.73
77537;BME280;67783;51.656;16.106;2023-04-29T11:43:59;101263.39;;;20.55;52.57
77537;BME280;67783;51.656;16.106;2023-04-29T11:47:05;101259.28;;;20.51;52.55
77537;BME280;67783;51.656;16.106;2023-04-29T11:50:14;101267.79;;;20.48;52.54
77537;BME280;67783;51.656;16.106;2023-04-29T11:53:21;101261.00;;;20.52;52.31
77537;BME280;67783;51.656;16.106;2023-04-29T11:56:23;101256.93;;;20.56;52.27
77537;BME280;67783;51.656;16.106;2023-04-29T11:59:41;101256.82;;;20.65;52.30
77537;BME280;67783;51.656;16.106;2023-04-29T12:02:44;101254.28;;;20.72;52.07
77537;BME280;67783;51.656;16.106;2023-04-29T12:05:53;101254.68;;;20.85;51.60
77537;BME280;67783;51.656;16.106;2023-04-29T12:09:05;101258.96;;;20.96;50.53
77537;BME280;67783;51.656;16.106;2023-04-29T12:12:06;101246.22;;;21.04;50.88
77537;BME280;67783;51.656;16.106;2023-04-29T12:15:11;101243.84;;;21.09;50.46
77537;BME280;67783;51.656;16.106;2023-04-29T12:18:16;101251.22;;;21.17;50.54
77537;BME280;67783;51.656;16.106;2023-04-29T12:21:18;101247.65;;;21.25;50.24
77537;BME280;67783;51.656;16.106;2023-04-29T12:24:25;101252.97;;;21.34;49.37
77537;BME280;67783;51.656;16.106;2023-04-29T12:27:28;101256.56;;;21.43;49.98
77537;BME280;67783;51.656;16.106;2023-04-29T12:30:31;101256.05;;;21.39;49.32
77537;BME280;67783;51.656;16.106;2023-04-29T12:33:34;101272.38;;;21.23;49.67
77537;BME280;67783;51.656;16.106;2023-04-29T12:36:36;101271.45;;;21.06;49.75
77537;BME280;67783;51.656;16.106;2023-04-29T12:39:48;101272.10;;;21.00;49.33
77537;BME280;67783;51.656;16.106;2023-04-29T12:42:52;101275.69;;;21.01;49.74
77537;BME280;67783;51.656;16.106;2023-04-29T12:46:04;101279.95;;;20.95;49.56
77537;BME280;67783;51.656;16.106;2023-04-29T12:49:12;101276.66;;;20.92;49.18
77537;BME280;67783;51.656;16.106;2023-04-29T12:52:14;101276.00;;;20.90;49.84
77537;BME280;67783;51.656;16.106;2023-04-29T12:55:16;101281.78;;;20.87;49.88
77537;BME280;67783;51.656;16.106;2023-04-29T12:58:18;101276.11;;;20.80;50.16
77537;BME280;67783;51.656;16.106;2023-04-29T13:01:20;101279.66;;;20.72;50.32
77537;BME280;67783;51.656;16.106;2023-04-29T13:04:33;101290.86;;;20.61;49.76
77537;BME280;67783;51.656;16.106;2023-04-29T13:07:34;101302.13;;;20.41;50.63
77537;BME280;67783;51.656;16.106;2023-04-29T13:10:36;101258.95;;;20.02;51.42
77537;BME280;67783;51.656;16.106;2023-04-29T13:13:38;101294.19;;;20.04;51.60
77537;BME280;67783;51.656;16.106;2023-04-29T13:16:40;101291.16;;;19.89;52.10
77537;BME280;67783;51.656;16.106;2023-04-29T13:19:41;101280.36;;;19.79;52.12
77537;BME280;67783;51.656;16.106;2023-04-29T13:22:45;101289.63;;;19.69;52.45
77537;BME280;67783;51.656;16.106;2023-04-29T13:25:50;101289.41;;;19.62;53.89
77537;BME280;67783;51.656;16.106;2023-04-29T13:28:51;101285.52;;;19.65;52.67
77537;BME280;67783;51.656;16.106;2023-04-29T13:31:53;101288.10;;;19.66;53.20
77537;BME280;67783;51.656;16.106;2023-04-29T13:34:54;101290.16;;;19.72;52.75
77537;BME280;67783;51.656;16.106;2023-04-29T13:37:56;101288.70;;;19.78;52.96
77537;BME280;67783;51.656;16.106;2023-04-29T13:40:58;101287.44;;;19.90;52.64
77537;BME280;67783;51.656;16.106;2023-04-29T13:44:00;101279.73;;;20.03;52.59
77537;BME280;67783;51.656;16.106;2023-04-29T13:47:05;101282.17;;;20.14;52.69
77537;BME280;67783;51.656;16.106;2023-04-29T13:50:08;101278.84;;;20.20;52.02
77537;BME280;67783;51.656;16.106;2023-04-29T13:53:09;101269.05;;;20.10;51.96
77537;BME280;67783;51.656;16.106;2023-04-29T13:56:11;101290.66;;;20.11;51.99
77537;BME280;67783;51.656;16.106;2023-04-29T13:59:13;101308.35;;;19.90;51.82
77537;BME280;67783;51.656;16.106;2023-04-29T14:02:14;101303.38;;;19.67;52.44
77537;BME280;67783;51.656;16.106;2023-04-29T14:05:16;101307.58;;;19.44;52.94
77537;BME280;67783;51.656;16.106;2023-04-29T14:08:21;101313.05;;;19.34;53.91
77537;BME280;67783;51.656;16.106;2023-04-29T14:11:22;101312.18;;;19.34;52.92
77537;BME280;67783;51.656;16.106;2023-04-29T14:14:24;101313.35;;;19.31;53.29
77537;BME280;67783;51.656;16.106;2023-04-29T14:17:26;101317.79;;;19.32;53.19
77537;BME280;67783;51.656;16.106;2023-04-29T14:20:27;101328.81;;;19.31;53.19
77537;BME280;67783;51.656;16.106;2023-04-29T14:23:29;101323.37;;;19.31;53.02
77537;BME280;67783;51.656;16.106;2023-04-29T14:26:31;101323.55;;;19.29;52.96
77537;BME280;67783;51.656;16.106;2023-04-29T14:29:35;101333.84;;;19.26;52.73
77537;BME280;67783;51.656;16.106;2023-04-29T14:32:37;101339.59;;;19.23;52.61
77537;BME280;67783;51.656;16.106;2023-04-29T14:35:39;101345.48;;;19.18;52.70
77537;BME280;67783;51.656;16.106;2023-04-29T14:38:47;101339.36;;;19.16;52.77
77537;BME280;67783;51.656;16.106;2023-04-29T14:41:48;101342.98;;;19.07;52.55
77537;BME280;67783;51.656;16.106;2023-04-29T14:44:50;101345.83;;;19.06;52.59
77537;BME280;67783;51.656;16.106;2023-04-29T14:47:54;101351.44;;;19.04;52.77
77537;BME280;67783;51.656;16.106;2023-04-29T14:50:56;101350.71;;;19.02;52.79
77537;BME280;67783;51.656;16.106;2023-04-29T14:53:57;101349.92;;;18.92;53.12
77537;BME280;67783;51.656;16.106;2023-04-29T14:57:02;101369.71;;;18.75;54.13
77537;BME280;67783;51.656;16.106;2023-04-29T15:00:05;101378.62;;;18.58;53.90
77537;BME280;67783;51.656;16.106;2023-04-29T15:03:08;101375.07;;;18.38;54.63
77537;BME280;67783;51.656;16.106;2023-04-29T15:06:10;101387.09;;;18.26;54.40
77537;BME280;67783;51.656;16.106;2023-04-29T15:09:12;101382.09;;;18.12;54.68
77537;BME280;67783;51.656;16.106;2023-04-29T15:12:23;101384.39;;;17.97;55.24
77537;BME280;67783;51.656;16.106;2023-04-29T15:15:25;101390.08;;;17.94;54.70
77537;BME280;67783;51.656;16.106;2023-04-29T15:18:26;101395.50;;;17.94;55.01
77537;BME280;67783;51.656;16.106;2023-04-29T15:21:28;101395.50;;;17.94;54.68
77537;BME280;67783;51.656;16.106;2023-04-29T15:24:32;101405.91;;;17.89;54.80
77537;BME280;67783;51.656;16.106;2023-04-29T15:27:43;101409.50;;;17.80;55.82
77537;BME280;67783;51.656;16.106;2023-04-29T15:30:46;101416.18;;;17.66;55.18
77537;BME280;67783;51.656;16.106;2023-04-29T15:33:48;101409.99;;;17.54;55.80
77537;BME280;67783;51.656;16.106;2023-04-29T15:36:53;101421.38;;;17.48;55.45
77537;BME280;67783;51.656;16.106;2023-04-29T15:40:00;101426.63;;;17.31;56.11
77537;BME280;67783;51.656;16.106;2023-04-29T15:43:04;101425.82;;;17.10;57.75
77537;BME280;67783;51.656;16.106;2023-04-29T15:46:07;101446.27;;;16.93;56.34
77537;BME280;67783;51.656;16.106;2023-04-29T15:49:08;101435.90;;;16.77;57.13
77537;BME280;67783;51.656;16.106;2023-04-29T15:52:13;101448.26;;;16.70;56.59
77537;BME280;67783;51.656;16.106;2023-04-29T15:55:14;101461.72;;;16.60;56.86
77537;BME280;67783;51.656;16.106;2023-04-29T15:58:25;101465.92;;;16.53;58.68
77537;BME280;67783;51.656;16.106;2023-04-29T16:01:26;101476.03;;;16.51;57.08
77537;BME280;67783;51.656;16.106;2023-04-29T16:04:28;101464.80;;;16.35;58.08
77537;BME280;67783;51.656;16.106;2023-04-29T16:07:31;101480.29;;;16.33;57.45
77537;BME280;67783;51.656;16.106;2023-04-29T16:10:33;101477.38;;;16.25;57.98
77537;BME280;67783;51.656;16.106;2023-04-29T16:13:45;101485.55;;;16.14;59.58
77537;BME280;67783;51.656;16.106;2023-04-29T16:16:47;101487.88;;;16.07;57.88